Time;durP1;ratioP1;P1;durP2;ratioP2;P2;SDS_P1;SDS_P2;PMS_P1;PMS_P2;Temp;Humidity;BMP_temperature;BMP_pressure;BME280_temperature;BME280_humidity;BME280_pressure;Samples;Min_cycle;Max_cycle;Signal;HPM_P1;HPM_P2
2022/06/22 00:02:18;;;;;;;2.33;1.37;;;;;;;10.40;64.47;95329.14;1795263;80;20991;-65
2022/06/22 00:04:53;;;;;;;4.00;1.30;;;;;;;10.36;64.68;95330.13;1795680;80;21002;-65
2022/06/22 00:07:27;;;;;;;3.00;1.20;;;;;;;10.32;65.26;95324.50;1795567;80;20963;-65
2022/06/22 00:10:13;;;;;;;1.60;1.23;;;;;;;10.23;64.89;95328.64;1795765;80;21021;-65
2022/06/22 00:12:40;;;;;;;2.37;1.47;;;;;;;10.24;64.05;95326.41;1795469;80;21010;-65
2022/06/22 00:15:32;;;;;;;2.80;1.47;;;;;;;10.17;64.59;95324.34;1795504;80;21018;-64
2022/06/22 00:18:02;;;;;;;2.80;1.47;;;;;;;10.10;65.09;95325.37;1795215;80;21564;-65
2022/06/22 00:20:32;;;;;;;1.83;1.30;;;;;;;10.10;65.35;95325.37;1795753;80;21090;-65
2022/06/22 00:23:19;;;;;;;1.30;1.13;;;;;;;10.08;65.52;95326.30;1795153;80;21003;-65
2022/06/22 00:25:46;;;;;;;2.40;1.23;;;;;;;10.10;64.84;95331.95;1795578;80;21018;-65
2022/06/22 00:28:38;;;;;;;1.73;1.20;;;;;;;10.02;65.93;95343.12;1795143;80;21057;-65
2022/06/22 00:31:28;;;;;;;1.50;1.00;;;;;;;10.00;66.19;95338.78;1792186;80;21487;-65
2022/06/22 00:34:12;;;;;;;2.07;1.10;;;;;;;9.99;65.77;95346.28;1795458;80;21010;-65
2022/06/22 00:37:16;;;;;;;2.43;1.20;;;;;;;9.91;65.42;95345.12;1795642;80;21038;-65
2022/06/22 00:39:56;;;;;;;1.30;1.20;;;;;;;9.83;67.04;95341.31;1795216;80;21007;-65
2022/06/22 00:42:38;;;;;;;1.40;1.30;;;;;;;9.77;66.79;95342.73;1795484;80;21523;-65
2022/06/22 00:45:14;;;;;;;2.00;1.20;;;;;;;9.79;67.21;95346.22;1795726;80;21092;-65
2022/06/22 00:48:04;;;;;;;3.97;1.40;;;;;;;9.76;66.34;95350.23;1764677;80;21014;-65
2022/06/22 00:50:44;;;;;;;2.63;1.30;;;;;;;9.69;67.02;95357.38;1794312;80;21014;-65
2022/06/22 00:53:34;;;;;;;2.17;1.23;;;;;;;9.64;67.13;95363.18;1795572;80;20999;-65
2022/06/22 00:56:35;;;;;;;1.83;1.10;;;;;;;9.60;67.47;95366.79;1764723;80;20995;-65
2022/06/22 00:59:22;;;;;;;1.67;1.20;;;;;;;9.57;67.18;95365.50;1786883;80;21086;-65
2022/06/22 01:02:12;;;;;;;1.27;1.07;;;;;;;9.54;68.48;95366.43;1787243;80;20959;-65
2022/06/22 01:04:47;;;;;;;1.07;0.93;;;;;;;9.56;68.12;95360.28;1786712;80;21011;-65
2022/06/22 01:07:29;;;;;;;1.70;0.90;;;;;;;9.47;68.74;95359.53;1787491;80;21010;-65
2022/06/22 01:10:07;;;;;;;1.40;1.30;;;;;;;9.49;67.49;95361.69;1786867;80;21341;-65
2022/06/22 01:12:56;;;;;;;1.20;1.00;;;;;;;9.55;67.61;95364.69;1786573;80;20999;-65
2022/06/22 01:15:37;;;;;;;2.73;1.10;;;;;;;9.54;67.13;95341.86;1787212;80;21011;-65
2022/06/22 01:18:24;;;;;;;1.27;1.17;;;;;;;9.51;68.07;95337.98;1784253;80;20999;-65
2022/06/22 01:21:09;;;;;;;2.90;1.50;;;;;;;9.61;67.98;95334.27;1786295;80;21027;-65
2022/06/22 01:24:22;;;;;;;2.27;1.20;;;;;;;9.63;68.02;95334.25;1785421;80;21079;-65
2022/06/22 01:27:35;;;;;;;1.43;1.33;;;;;;;9.54;67.48;95338.77;1787181;80;20995;-65
2022/06/22 01:30:37;;;;;;;2.65;1.37;;;;;;;9.40;68.43;95333.34;1787571;80;21011;-65
2022/06/22 01:33:33;;;;;;;1.50;1.30;;;;;;;9.26;68.96;95330.52;1786599;80;21011;-65
2022/06/22 01:36:08;;;;;;;4.67;1.30;;;;;;;9.13;68.83;95326.83;1787316;80;20955;-65
2022/06/22 01:38:38;;;;;;;2.67;1.40;;;;;;;9.10;69.11;95314.13;1787294;80;20999;-65
2022/06/22 01:41:42;;;;;;;2.53;1.40;;;;;;;9.11;68.14;95308.41;1787333;80;20987;-65
2022/06/22 01:44:25;;;;;;;2.80;1.50;;;;;;;9.16;69.11;95305.25;1786982;80;21091;-65
2022/06/22 01:47:21;;;;;;;1.85;1.30;;;;;;;9.10;69.99;95313.27;1786505;80;20972;-65
2022/06/22 01:49:56;;;;;;;1.60;1.37;;;;;;;9.06;69.53;95318.16;1787069;80;21014;-65
2022/06/22 01:52:28;;;;;;;2.07;1.50;;;;;;;8.98;69.37;95320.05;1786268;80;20995;-65
2022/06/22 01:55:00;;;;;;;2.85;1.70;;;;;;;8.92;69.38;95331.98;1786555;80;21027;-65
2022/06/22 01:57:32;;;;;;;3.10;1.90;;;;;;;8.86;69.52;95340.84;1793368;80;21097;-65
2022/06/22 02:00:14;;;;;;;1.80;1.50;;;;;;;8.75;70.68;95328.33;1795049;80;20979;-65
2022/06/22 02:02:46;;;;;;;2.83;1.83;;;;;;;8.76;69.96;95309.00;1795486;80;20987;-65
2022/06/22 02:05:33;;;;;;;2.00;1.60;;;;;;;8.70;70.90;95324.45;1794739;80;21010;-65
2022/06/22 02:08:23;;;;;;;2.70;1.70;;;;;;;8.65;70.58;95330.22;1795127;80;21015;-65
2022/06/22 02:10:56;;;;;;;3.63;1.70;;;;;;;8.70;69.56;95307.80;1795413;80;21041;-65
2022/06/22 02:13:43;;;;;;;1.60;1.50;;;;;;;8.66;70.67;95312.22;1795242;80;21503;-65
2022/06/22 02:16:33;;;;;;;2.73;1.83;;;;;;;8.60;70.69;95307.94;1795560;80;21018;-65
2022/06/22 02:19:05;;;;;;;3.30;1.60;;;;;;;8.55;70.37;95305.82;1795262;80;21041;-65
2022/06/22 02:21:46;;;;;;;1.90;1.27;;;;;;;8.48;71.49;95314.69;1795542;80;20994;-65
2022/06/22 02:24:36;;;;;;;1.53;1.30;;;;;;;8.42;71.41;95317.42;1795481;80;21046;-65
2022/06/22 02:27:16;;;;;;;1.37;1.27;;;;;;;8.39;71.73;95320.97;1795820;80;21006;-65
2022/06/22 02:29:54;;;;;;;3.80;1.53;;;;;;;8.49;71.88;95322.13;1795378;80;21014;-65
2022/06/22 02:32:38;;;;;;;5.23;1.50;;;;;;;8.50;71.85;95326.06;1795462;80;21058;-65
2022/06/22 02:35:09;;;;;;;2.77;1.37;;;;;;;8.54;71.33;95323.82;1795190;80;21030;-65
2022/06/22 02:37:41;;;;;;;3.90;1.40;;;;;;;8.58;70.96;95333.38;1795643;80;20963;-65
2022/06/22 02:40:12;;;;;;;2.17;1.30;;;;;;;8.62;70.86;95325.88;1794706;80;21003;-65
2022/06/22 02:45:25;;;;;;;1.53;1.30;;;;;;;8.61;71.98;95319.31;1795441;80;21050;-65
2022/06/22 02:47:59;;;;;;;2.07;1.27;;;;;;;8.55;71.79;95318.11;1795405;80;20962;-65
2022/06/22 02:51:05;;;;;;;1.77;1.20;;;;;;;8.56;72.21;95306.69;1795383;80;20987;-65
2022/06/22 02:53:36;;;;;;;3.63;1.00;;;;;;;8.58;71.73;95311.03;1795366;80;21010;-65
2022/06/22 02:56:20;;;;;;;1.20;1.10;;;;;;;8.62;71.36;95314.50;1795069;80;21006;-66
2022/06/22 02:58:48;;;;;;;2.17;1.30;;;;;;;8.54;71.44;95327.77;1795427;80;21118;-65
2022/06/22 03:01:21;;;;;;;1.97;1.60;;;;;;;8.44;71.93;95326.13;1795380;80;20975;-65
2022/06/22 03:04:01;;;;;;;2.97;1.97;;;;;;;8.39;72.52;95316.09;1764515;80;21042;-65
2022/06/22 03:06:33;;;;;;;5.20;1.80;;;;;;;8.47;72.47;95315.59;1795273;80;21050;-65
2022/06/22 03:09:04;;;;;;;2.73;1.73;;;;;;;8.52;72.03;95316.39;1795764;80;21038;-65
2022/06/22 03:11:34;;;;;;;1.70;1.60;;;;;;;8.57;71.68;95313.25;1795504;80;21002;-65
2022/06/22 03:14:22;;;;;;;3.03;1.60;;;;;;;8.60;72.43;95320.22;1795678;80;21034;-65
2022/06/22 03:17:12;;;;;;;1.67;1.57;;;;;;;8.68;72.13;95322.28;1795172;80;21031;-65
2022/06/22 03:20:03;;;;;;;3.97;1.50;;;;;;;8.77;72.94;95312.05;1795652;80;21003;-65
2022/06/22 03:22:38;;;;;;;2.03;1.50;;;;;;;8.78;72.65;95317.74;1795651;80;21010;-65
2022/06/22 03:25:25;;;;;;;3.07;1.60;;;;;;;8.74;72.64;95313.41;1795700;80;21010;-65
2022/06/22 03:27:57;;;;;;;2.10;1.90;;;;;;;8.76;72.61;95316.44;1795279;80;21065;-65
2022/06/22 03:30:38;;;;;;;3.13;1.83;;;;;;;8.55;72.64;95318.97;1795216;80;20983;-65
2022/06/22 03:33:12;;;;;;;1.70;1.60;;;;;;;8.62;72.63;95309.23;1794850;80;21042;-65
2022/06/22 03:35:53;;;;;;;1.93;1.73;;;;;;;8.76;72.60;95305.05;1795518;80;21029;-65
2022/06/22 03:38:25;;;;;;;1.80;1.70;;;;;;;8.87;72.52;95313.66;1795413;80;21018;-65
2022/06/22 03:40:57;;;;;;;2.53;1.83;;;;;;;8.99;71.97;95324.41;1795659;80;21003;-65
2022/06/22 03:43:44;;;;;;;4.57;1.83;;;;;;;9.10;71.66;95323.80;1795663;80;21520;-65
2022/06/22 03:46:19;;;;;;;4.43;2.10;;;;;;;9.24;71.49;95340.20;1795582;80;21508;-65
2022/06/22 03:49:02;;;;;;;2.60;1.93;;;;;;;9.35;70.84;95341.34;1795719;80;21317;-65
2022/06/22 03:51:34;;;;;;;2.90;2.17;;;;;;;9.45;70.77;95344.23;1795574;80;21003;-65
2022/06/22 03:54:22;;;;;;;4.33;1.77;;;;;;;9.57;70.77;95331.27;1793860;80;20995;-65
2022/06/22 03:56:52;;;;;;;4.20;1.97;;;;;;;9.72;71.05;95331.42;1795464;80;21061;-65
2022/06/22 03:59:19;;;;;;;3.17;1.73;;;;;;;9.87;70.30;95331.12;1795565;80;21078;-65
2022/06/22 04:01:46;;;;;;;3.60;1.70;;;;;;;10.02;69.88;95339.16;1795593;80;21456;-65
2022/06/22 04:04:13;;;;;;;2.20;1.70;;;;;;;10.16;69.72;95345.03;1794733;80;21034;-65
2022/06/22 04:06:46;;;;;;;3.43;2.23;;;;;;;10.25;68.94;95345.73;1795493;80;20979;-65
2022/06/22 04:09:18;;;;;;;2.10;1.63;;;;;;;10.40;69.00;95346.74;1795623;80;21531;-65
2022/06/22 04:12:12;;;;;;;3.00;1.80;;;;;;;10.61;68.69;95348.92;1764885;80;20954;-65
2022/06/22 04:15:07;;;;;;;3.07;1.70;;;;;;;10.79;68.10;95344.13;1794157;80;21094;-65
2022/06/22 04:17:45;;;;;;;4.23;1.70;;;;;;;10.94;67.95;95350.82;1795622;80;21007;-65
2022/06/22 04:20:25;;;;;;;4.50;2.00;;;;;;;11.07;66.72;95360.63;1794764;80;21006;-65
2022/06/22 04:22:56;;;;;;;6.43;2.07;;;;;;;11.22;67.09;95362.43;1795554;80;21036;-65
2022/06/22 04:25:34;;;;;;;4.77;2.03;;;;;;;11.40;67.09;95358.45;1764539;80;21030;-65
2022/06/22 04:28:05;;;;;;;3.03;2.00;;;;;;;11.53;66.30;95354.18;1795511;80;21009;-65
2022/06/22 04:30:37;;;;;;;3.50;2.20;;;;;;;11.64;66.98;95353.00;1795691;80;21033;-65
2022/06/22 04:33:15;;;;;;;3.23;1.90;;;;;;;11.77;66.65;95359.25;1795850;80;20970;-65
2022/06/22 04:35:55;;;;;;;3.47;1.80;;;;;;;11.88;66.24;95359.87;1794163;80;21011;-65
2022/06/22 04:38:40;;;;;;;6.53;2.27;;;;;;;12.02;65.74;95359.48;1795642;80;21469;-65
2022/06/22 04:41:31;;;;;;;2.47;1.80;;;;;;;12.12;65.67;95356.55;1783327;80;21087;-65
2022/06/22 04:44:07;;;;;;;4.43;1.90;;;;;;;12.18;65.68;95362.13;1795524;80;21504;-65
2022/06/22 04:46:38;;;;;;;4.33;1.60;;;;;;;12.31;64.76;95366.14;1782939;80;21058;-65
2022/06/22 04:49:10;;;;;;;3.60;1.93;;;;;;;12.40;63.71;95357.08;1795300;80;21069;-65
2022/06/22 04:51:39;;;;;;;4.73;1.57;;;;;;;12.55;63.85;95361.05;1794923;80;21030;-65
2022/06/22 04:54:25;;;;;;;3.93;1.70;;;;;;;12.71;63.62;95359.66;1795591;80;20995;-65
2022/06/22 04:56:54;;;;;;;5.13;1.87;;;;;;;12.87;63.95;95361.37;1794480;80;20979;-65
2022/06/22 04:59:22;;;;;;;3.73;1.80;;;;;;;13.00;63.54;95349.92;1787166;80;20975;-65
2022/06/22 05:01:57;;;;;;;4.20;2.00;;;;;;;13.12;63.65;95354.83;1787113;80;21047;-65
2022/06/22 05:04:34;;;;;;;6.80;2.00;;;;;;;13.27;63.15;95357.94;1786998;80;21023;-65
2022/06/22 05:07:40;;;;;;;2.92;2.08;;;;;;;13.40;63.01;95360.59;1786367;80;20979;-65
2022/06/22 05:10:12;;;;;;;4.47;1.60;;;;;;;13.52;61.71;95346.06;1787088;80;20988;-65
2022/06/22 05:12:50;;;;;;;2.77;1.70;;;;;;;13.85;62.03;95355.95;1785508;80;20999;-65
2022/06/22 05:15:22;;;;;;;3.22;1.82;;;;;;;13.85;62.03;95355.95;1787228;80;21484;-65
2022/06/22 05:17:49;;;;;;;4.45;1.57;;;;;;;14.06;61.96;95355.64;1783602;80;21022;-65
2022/06/22 05:20:52;;;;;;;4.87;1.80;;;;;;;14.23;61.79;95369.17;1786840;80;21579;-65
2022/06/22 05:23:23;;;;;;;4.00;1.80;;;;;;;14.39;62.06;95363.30;1787513;80;20978;-65
2022/06/22 05:25:54;;;;;;;4.83;1.90;;;;;;;14.64;61.98;95361.94;1787243;80;21042;-65
2022/06/22 05:28:32;;;;;;;7.55;2.10;;;;;;;14.84;61.34;95352.77;1787073;80;20999;-65
2022/06/22 05:31:06;;;;;;;3.15;1.75;;;;;;;15.05;61.05;95354.17;1782847;80;21019;-65
2022/06/22 05:33:37;;;;;;;7.97;2.45;;;;;;;15.26;61.07;95344.45;1785814;80;21483;-65
2022/06/22 05:36:11;;;;;;;4.58;1.90;;;;;;;15.45;60.00;95353.41;1786990;80;20979;-65
2022/06/22 05:38:45;;;;;;;5.87;1.60;;;;;;;15.64;59.90;95353.49;1787156;80;20994;-65
2022/06/22 05:41:17;;;;;;;3.45;1.65;;;;;;;15.79;55.45;95351.53;1787216;80;20975;-65
2022/06/22 05:43:45;;;;;;;5.17;2.02;;;;;;;15.94;56.71;95352.67;1785767;80;21022;-65
2022/06/22 05:46:13;;;;;;;7.12;2.00;;;;;;;16.09;56.42;95356.47;1787198;80;21492;-65
2022/06/22 05:48:44;;;;;;;4.08;2.10;;;;;;;16.28;55.54;95364.95;1787098;80;21035;-65
2022/06/22 05:51:48;;;;;;;5.80;1.92;;;;;;;16.38;54.19;95351.19;1785779;80;21532;-65
2022/06/22 05:54:27;;;;;;;3.45;1.70;;;;;;;16.52;54.13;95366.52;1787153;80;21007;-65
2022/06/22 05:57:16;;;;;;;8.95;1.80;;;;;;;16.69;53.81;95368.42;1787112;80;21038;-65
2022/06/22 05:59:56;;;;;;;6.25;1.67;;;;;;;16.78;52.78;95364.05;1787113;80;21023;-65
2022/06/22 06:02:31;;;;;;;2.62;1.70;;;;;;;16.89;52.99;95354.69;1787196;80;21014;-65
2022/06/22 06:05:18;;;;;;;3.00;1.90;;;;;;;17.04;51.50;95358.81;1786642;80;21078;-65
2022/06/22 06:07:50;;;;;;;3.33;1.50;;;;;;;17.14;50.85;95348.58;1787296;80;20976;-64
2022/06/22 06:10:24;;;;;;;7.72;3.12;;;;;;;17.25;50.98;95346.23;1787092;80;21038;-64
2022/06/22 06:13:18;;;;;;;3.10;2.00;;;;;;;17.17;50.11;95341.75;1786369;80;21528;-65
2022/06/22 06:15:47;;;;;;;2.58;1.60;;;;;;;17.13;51.34;95343.30;1786918;80;21505;-65
2022/06/22 06:18:25;;;;;;;5.72;1.95;;;;;;;17.21;51.25;95346.01;1787054;80;21457;-65
2022/06/22 06:21:03;;;;;;;4.08;1.72;;;;;;;17.28;51.25;95346.55;1786731;80;21536;-65
2022/06/22 06:23:54;;;;;;;3.58;1.82;;;;;;;17.34;50.98;95352.94;1786074;80;21090;-64
2022/06/22 06:30:19;;;;;;;2.62;1.98;;;;;;;17.23;49.94;95349.91;1786932;80;21059;-65
2022/06/22 06:32:54;;;;;;;2.30;2.10;;;;;;;17.15;50.49;95352.95;1787036;80;21019;-65
2022/06/22 06:35:39;;;;;;;2.60;1.52;;;;;;;17.28;50.36;95356.74;1786041;80;21531;-65
2022/06/22 06:38:25;;;;;;;11.55;1.92;;;;;;;17.62;51.11;95352.43;1786113;80;21019;-65
2022/06/22 06:40:57;;;;;;;4.03;1.80;;;;;;;17.87;50.42;95341.89;1786951;80;20987;-65
2022/06/22 06:43:56;;;;;;;2.95;1.95;;;;;;;18.14;49.39;95344.47;1787249;80;21050;-64
2022/06/22 06:46:40;;;;;;;10.60;2.55;;;;;;;18.14;49.39;95344.47;1787372;80;21042;-65
2022/06/22 06:49:32;;;;;;;2.47;1.80;;;;;;;18.24;48.97;95342.15;1786894;80;21089;-64
2022/06/22 06:52:06;;;;;;;3.02;1.67;;;;;;;18.18;48.29;95359.84;1754338;80;21031;-65
2022/06/22 06:54:44;;;;;;;2.50;1.57;;;;;;;18.31;47.85;95348.89;1766391;80;21500;-64
2022/06/22 06:57:20;;;;;;;2.00;1.57;;;;;;;18.22;46.75;95350.73;1787540;80;21098;-65
2022/06/22 06:59:54;;;;;;;3.58;1.67;;;;;;;18.31;47.03;95357.39;1787618;80;21027;-65
2022/06/22 07:02:37;;;;;;;2.75;1.90;;;;;;;18.48;47.17;95339.99;1787157;80;21019;-65
2022/06/22 07:05:10;;;;;;;2.10;1.80;;;;;;;18.74;46.20;95346.59;1787005;80;21015;-65
2022/06/22 07:07:51;;;;;;;3.55;1.47;;;;;;;18.74;46.20;95346.59;1787201;80;21046;-64
2022/06/22 07:10:23;;;;;;;4.72;1.50;;;;;;;18.75;45.70;95358.16;1787038;80;21536;-65
2022/06/22 07:12:58;;;;;;;3.35;1.67;;;;;;;18.98;46.03;95348.91;1787400;80;21473;-65
2022/06/22 07:15:35;;;;;;;2.45;1.40;;;;;;;19.28;45.06;95353.02;1754557;80;20996;-65
2022/06/22 07:18:19;;;;;;;1.62;1.40;;;;;;;19.43;44.32;95346.78;1787064;80;21011;-65
2022/06/22 07:20:51;;;;;;;2.17;1.50;;;;;;;19.63;43.90;95344.30;1787049;80;21019;-65
2022/06/22 07:23:26;;;;;;;4.60;1.75;;;;;;;19.69;43.69;95353.81;1787180;80;21031;-65
2022/06/22 07:25:58;;;;;;;2.37;1.50;;;;;;;19.93;43.69;95344.79;1781660;80;21509;-65
2022/06/22 07:28:42;;;;;;;5.20;1.80;;;;;;;20.14;42.36;95356.05;1787285;80;21469;-65
2022/06/22 07:31:26;;;;;;;5.50;1.50;;;;;;;19.93;41.83;95362.19;1786304;80;21513;-65
2022/06/22 07:34:25;;;;;;;2.33;1.42;;;;;;;20.01;42.58;95359.95;1787133;80;21015;-65
2022/06/22 07:37:03;;;;;;;2.62;1.25;;;;;;;20.16;42.31;95352.81;1786945;80;20990;-64
2022/06/22 07:39:59;;;;;;;2.35;1.37;;;;;;;20.08;41.76;95361.31;1787150;80;21039;-65
2022/06/22 07:42:26;;;;;;;2.00;1.20;;;;;;;20.28;41.59;95353.38;1787245;80;20999;-65
2022/06/22 07:44:53;;;;;;;2.52;1.10;;;;;;;20.60;41.86;95345.72;1786997;80;20985;-65
2022/06/22 07:47:38;;;;;;;3.33;1.20;;;;;;;20.77;39.62;95352.23;1787243;80;20987;-65
2022/06/22 07:50:13;;;;;;;1.87;1.17;;;;;;;20.59;38.39;95348.88;1786528;80;21496;-65
2022/06/22 07:52:51;;;;;;;3.98;1.35;;;;;;;20.64;38.92;95348.12;1787398;80;21014;-65
2022/06/22 07:55:31;;;;;;;2.37;1.20;;;;;;;20.81;38.87;95352.41;1786265;80;21103;-65
2022/06/22 07:58:29;;;;;;;5.12;1.30;;;;;;;20.84;38.74;95361.63;1786752;80;21082;-65
2022/06/22 08:01:01;;;;;;;1.85;1.15;;;;;;;20.92;38.45;95367.36;1786879;80;21505;-65
2022/06/22 08:03:49;;;;;;;3.35;1.12;;;;;;;20.88;36.82;95364.47;1786968;80;21050;-65
2022/06/22 08:06:30;;;;;;;2.58;1.10;;;;;;;20.84;36.92;95350.89;1786895;80;21019;-65
2022/06/22 08:09:04;;;;;;;3.35;1.10;;;;;;;20.69;37.43;95351.86;1787230;80;21094;-65
2022/06/22 08:11:39;;;;;;;2.75;1.15;;;;;;;20.70;37.37;95351.74;1787193;80;21046;-65
2022/06/22 08:14:39;;;;;;;2.77;1.20;;;;;;;20.87;38.18;95355.20;1787265;80;21015;-65
2022/06/22 08:17:22;;;;;;;3.42;1.27;;;;;;;20.84;37.50;95355.37;1787080;80;21536;-64
2022/06/22 08:19:49;;;;;;;3.10;1.10;;;;;;;20.83;37.68;95357.20;1786198;80;21019;-65
2022/06/22 08:22:16;;;;;;;6.30;1.37;;;;;;;20.88;36.19;95355.09;1787109;80;21023;-65
2022/06/22 08:24:47;;;;;;;3.22;1.12;;;;;;;20.92;37.09;95353.95;1787065;80;21018;-65
2022/06/22 08:27:19;;;;;;;0.80;0.80;;;;;;;21.00;36.82;95342.73;1786944;80;21011;-65
2022/06/22 08:29:48;;;;;;;6.40;1.20;;;;;;;21.24;37.89;95340.77;1754702;80;20975;-65
2022/06/22 08:32:32;;;;;;;2.20;0.93;;;;;;;21.30;36.65;95344.41;1787105;80;21019;-65
2022/06/22 08:35:07;;;;;;;1.75;1.05;;;;;;;21.21;34.92;95340.97;1787396;80;21026;-65
2022/06/22 08:37:42;;;;;;;1.40;0.98;;;;;;;21.17;36.40;95339.83;1787052;80;21003;-65
2022/06/22 08:40:36;;;;;;;5.08;1.20;;;;;;;21.34;36.37;95342.77;1787402;80;20998;-65
2022/06/22 08:43:28;;;;;;;2.62;1.30;;;;;;;21.33;35.47;95347.73;1787298;80;21034;-65
2022/06/22 08:46:24;;;;;;;1.17;1.07;;;;;;;21.57;35.64;95355.17;1787020;80;21034;-65
2022/06/22 08:49:41;;;;;;;4.45;1.35;;;;;;;21.76;35.73;95342.26;1783762;80;21531;-65
2022/06/22 08:52:38;;;;;;;3.52;1.22;;;;;;;21.95;35.39;95346.41;1786748;80;21540;-65
2022/06/22 08:55:16;;;;;;;4.83;1.37;;;;;;;22.09;34.78;95342.29;1787172;80;20943;-65
2022/06/22 08:58:25;;;;;;;3.50;1.20;;;;;;;22.36;34.69;95332.85;1777611;80;20999;-65
2022/06/22 09:01:18;;;;;;;4.05;0.95;;;;;;;22.47;34.19;95332.95;1787144;80;20971;-65
2022/06/22 09:04:14;;;;;;;4.87;1.50;;;;;;;22.61;34.23;95338.72;1787352;80;21023;-65
2022/06/22 09:07:27;;;;;;;5.87;2.17;;;;;;;22.60;33.72;95328.06;1786693;80;21015;-65
2022/06/22 09:10:19;;;;;;;3.00;1.27;;;;;;;22.82;35.00;95321.53;1787424;80;20980;-65
2022/06/22 09:13:07;;;;;;;2.47;1.17;;;;;;;22.74;34.41;95303.75;1786864;80;21023;-65
2022/06/22 09:15:58;;;;;;;4.15;1.42;;;;;;;22.81;34.51;95311.77;1785686;80;20968;-65
2022/06/22 09:18:57;;;;;;;1.80;1.25;;;;;;;22.90;34.14;95307.05;1787048;80;21011;-65
2022/06/22 09:22:02;;;;;;;3.45;1.10;;;;;;;23.09;34.19;95302.59;1786492;80;21544;-65
2022/06/22 09:25:01;;;;;;;2.77;1.05;;;;;;;23.32;33.71;95293.31;1786798;80;21015;-65
2022/06/22 09:28:00;;;;;;;5.28;1.07;;;;;;;23.30;31.43;95299.29;1787306;80;21527;-65
2022/06/22 09:30:58;;;;;;;4.05;1.10;;;;;;;23.35;30.97;95298.95;1784352;80;21603;-65
2022/06/22 09:34:07;;;;;;;3.67;1.20;;;;;;;23.42;31.73;95297.53;1786851;80;21031;-65
2022/06/22 09:36:41;;;;;;;6.20;1.30;;;;;;;23.60;31.70;95294.80;1786985;80;21481;-65
2022/06/22 09:39:38;;;;;;;1.87;1.05;;;;;;;23.85;32.20;95297.03;1786747;80;21015;-65
2022/06/22 09:42:30;;;;;;;2.00;1.20;;;;;;;23.97;31.59;95290.72;1786050;80;21504;-65
2022/06/22 09:45:11;;;;;;;6.15;1.20;;;;;;;24.17;32.46;95285.99;1787383;80;21026;-65
2022/06/22 09:47:49;;;;;;;5.37;1.27;;;;;;;24.44;31.60;95287.99;1787334;80;21476;-65
2022/06/22 09:50:33;;;;;;;2.02;1.25;;;;;;;24.52;30.46;95283.77;1786020;80;20990;-65
2022/06/22 09:53:45;;;;;;;2.90;1.00;;;;;;;24.49;30.37;95285.33;1773270;80;21074;-65
2022/06/22 09:56:43;;;;;;;4.17;1.27;;;;;;;24.56;29.96;95287.06;1787299;80;21003;-65
2022/06/22 09:59:19;;;;;;;3.27;1.20;;;;;;;24.81;30.15;95288.67;1758877;80;21068;-65
2022/06/22 10:01:57;;;;;;;2.52;1.02;;;;;;;24.92;29.34;95291.39;1795586;80;21010;-65
2022/06/22 10:04:47;;;;;;;2.12;1.20;;;;;;;24.77;29.10;95288.08;1795143;80;20967;-65
2022/06/22 10:07:31;;;;;;;3.98;1.30;;;;;;;24.89;29.49;95284.86;1795765;80;21477;-66
2022/06/22 10:10:18;;;;;;;1.20;1.10;;;;;;;25.15;29.78;95289.52;1795836;80;21006;-66
2022/06/22 10:13:17;;;;;;;3.20;1.30;;;;;;;25.12;29.20;95282.15;1796225;80;21046;-65
2022/06/22 10:16:16;;;;;;;2.80;1.20;;;;;;;25.04;28.85;95284.13;1795120;80;20955;-65
2022/06/22 10:18:58;;;;;;;3.08;1.22;;;;;;;25.12;28.97;95283.00;1795574;80;21011;-65
2022/06/22 10:21:59;;;;;;;2.40;1.20;;;;;;;24.92;28.85;95279.25;1795516;80;20971;-65
2022/06/22 10:25:08;;;;;;;5.92;1.07;;;;;;;25.27;30.14;95282.28;1795382;80;20999;-65
2022/06/22 10:28:03;;;;;;;1.75;1.30;;;;;;;25.47;28.80;95285.55;1795976;80;21009;-65
2022/06/22 10:30:56;;;;;;;4.03;1.32;;;;;;;25.84;29.31;95282.98;1795678;80;20971;-65
2022/06/22 10:33:43;;;;;;;3.10;1.22;;;;;;;25.89;27.73;95295.64;1795900;80;21014;-66
2022/06/22 10:36:18;;;;;;;6.17;1.10;;;;;;;25.97;28.15;95289.09;1795669;80;21045;-66
2022/06/22 10:39:21;;;;;;;3.12;1.50;;;;;;;26.00;27.02;95292.03;1795632;80;21041;-65
2022/06/22 10:45:40;;;;;;;1.10;1.00;;;;;;;26.05;26.86;95296.55;1746526;80;21500;-65
2022/06/22 10:48:40;;;;;;;1.70;1.20;;;;;;;26.02;26.50;95303.08;1795811;80;21069;-65
2022/06/22 10:51:26;;;;;;;1.65;1.22;;;;;;;25.88;26.63;95297.50;1795394;80;21006;-65
2022/06/22 10:54:34;;;;;;;1.85;1.00;;;;;;;26.11;27.68;95295.55;1795048;80;21066;-66
2022/06/22 10:57:44;;;;;;;3.37;1.20;;;;;;;26.48;27.81;95290.16;1796011;80;21026;-65
2022/06/22 11:00:31;;;;;;;1.75;1.05;;;;;;;26.38;26.42;95291.45;1789474;80;21016;-66
2022/06/22 11:03:26;;;;;;;2.25;1.00;;;;;;;26.45;26.14;95287.73;1787413;80;20971;-66
2022/06/22 11:06:13;;;;;;;1.65;1.10;;;;;;;26.50;25.80;95285.48;1786901;80;21058;-66
2022/06/22 11:09:20;;;;;;;5.17;1.17;;;;;;;26.53;25.58;95275.30;1787179;80;21011;-66
2022/06/22 11:12:07;;;;;;;2.12;1.10;;;;;;;26.61;25.21;95266.98;1787119;80;21034;-65
2022/06/22 11:15:15;;;;;;;1.35;1.02;;;;;;;26.69;24.97;95273.45;1757162;80;21517;-66
2022/06/22 11:18:05;;;;;;;1.90;1.20;;;;;;;26.68;25.14;95275.78;1787339;80;21010;-65
2022/06/22 11:21:12;;;;;;;2.35;1.10;;;;;;;26.80;25.47;95281.13;1694312;80;21024;-66
2022/06/22 11:24:15;;;;;;;1.65;1.00;;;;;;;26.82;25.37;95275.94;1786767;80;21579;-65
2022/06/22 11:33:24;;;;;;;2.37;1.30;;;;;;;27.20;23.70;95275.75;1787347;80;21006;-66
2022/06/22 11:36:19;;;;;;;2.55;1.30;;;;;;;26.48;24.21;95273.42;1787167;80;20999;-66
2022/06/22 11:39:22;;;;;;;1.70;1.12;;;;;;;26.27;26.25;95269.39;1787438;80;20987;-66
2022/06/22 11:42:20;;;;;;;3.77;1.27;;;;;;;26.69;26.71;95268.54;1787322;80;21516;-66
2022/06/22 11:48:27;;;;;;;4.00;1.23;;;;;;;27.04;25.54;95269.48;1787379;80;21004;-66
2022/06/22 11:51:08;;;;;;;2.95;1.20;;;;;;;26.61;24.40;95272.39;1787307;80;21504;-66
2022/06/22 11:54:03;;;;;;;2.60;1.37;;;;;;;26.72;25.16;95284.00;1786035;80;21484;-65
2022/06/22 11:56:50;;;;;;;5.65;1.32;;;;;;;26.87;24.47;95265.55;1787319;80;21043;-65
2022/06/22 11:59:39;;;;;;;1.82;1.10;;;;;;;27.03;25.28;95252.84;1786925;80;21115;-66
2022/06/22 12:02:57;;;;;;;1.70;1.10;;;;;;;27.44;25.71;95260.97;1787129;80;21027;-66
2022/06/22 12:05:54;;;;;;;5.83;1.27;;;;;;;27.74;23.79;95266.28;1786943;80;21015;-66
2022/06/22 12:08:50;;;;;;;3.20;1.20;;;;;;;28.08;23.49;95259.64;1786827;80;21079;-66
2022/06/22 12:11:57;;;;;;;1.72;0.90;;;;;;;28.28;22.96;95257.77;1787203;80;21524;-65
2022/06/22 12:15:05;;;;;;;2.90;1.00;;;;;;;28.60;22.92;95261.48;1781353;80;21504;-66
2022/06/22 12:18:05;;;;;;;2.17;1.22;;;;;;;28.91;23.43;95270.27;1787215;80;21011;-66
2022/06/22 12:20:58;;;;;;;8.65;1.67;;;;;;;29.16;22.55;95273.36;1787306;80;21003;-66
2022/06/22 12:23:33;;;;;;;2.52;1.20;;;;;;;29.80;22.52;95270.20;1785200;80;20998;-66
2022/06/22 12:26:20;;;;;;;6.67;1.10;;;;;;;29.98;21.66;95265.10;1786178;80;20987;-65
2022/06/22 12:29:04;;;;;;;1.45;1.20;;;;;;;29.54;21.60;95266.84;1787403;80;20975;-66
2022/06/22 12:31:36;;;;;;;2.05;1.15;;;;;;;29.75;22.66;95257.06;1735021;80;21066;-66
2022/06/22 12:34:33;;;;;;;2.80;1.27;;;;;;;29.78;21.28;95259.47;1786104;80;21027;-66
2022/06/22 12:37:05;;;;;;;3.65;1.10;;;;;;;29.41;22.85;95260.89;1787089;80;20995;-66
2022/06/22 12:39:50;;;;;;;;;;;;;;;29.89;21.92;95261.13;1789842;80;21015;-66
2022/06/22 12:43:07;;;;;;;2.37;1.00;;;;;;;30.42;21.61;95254.81;1787293;80;20128;-66
2022/06/22 12:46:10;;;;;;;2.15;0.95;;;;;;;30.49;20.69;95256.37;1787026;80;21026;-66
2022/06/22 12:48:58;;;;;;;2.98;1.02;;;;;;;31.15;20.36;95265.34;1787197;80;20995;-66
2022/06/22 12:51:51;;;;;;;1.42;0.95;;;;;;;31.29;19.31;95267.09;1786976;80;21489;-66
2022/06/22 12:54:26;;;;;;;3.37;3.08;;;;;;;30.71;19.46;95262.66;1787297;80;21477;-66
2022/06/22 12:57:02;;;;;;;3.30;1.20;;;;;;;30.30;19.98;95267.80;1787344;80;21015;-66
2022/06/22 12:59:39;;;;;;;1.52;1.00;;;;;;;30.55;21.09;95270.73;1787554;80;21011;-66
2022/06/22 13:02:12;;;;;;;1.40;0.93;;;;;;;30.88;20.31;95270.46;1787287;80;21036;-66
2022/06/22 13:04:39;;;;;;;3.12;0.98;;;;;;;31.25;20.97;95252.95;1787253;80;21019;-66
2022/06/22 13:07:11;;;;;;;1.57;0.82;;;;;;;31.07;19.63;95276.17;1786619;80;20983;-66
2022/06/22 13:09:39;;;;;;;1.95;0.90;;;;;;;31.41;20.03;95271.27;1754282;80;21540;-66
2022/06/22 13:12:17;;;;;;;2.33;0.82;;;;;;;31.82;18.51;95270.02;1786842;80;21058;-66
2022/06/22 13:14:59;;;;;;;2.12;0.90;;;;;;;31.44;19.83;95263.59;1777678;80;21003;-66